Time;durP1;ratioP1;P1;durP2;ratioP2;P2;SDS_P1;SDS_P2;PMS_P1;PMS_P2;Temp;Humidity;BMP_temperature;BMP_pressure;BME280_temperature;BME280_humidity;BME280_pressure;Samples;Min_cycle;Max_cycle;Signal;HPM_P1;HPM_P2
2023/09/20 00:01:33;;;;;;;12.48;3.58;;;17.60;99.90;;;;;;5017019;28;20408;-90
2023/09/20 00:04:01;;;;;;;10.85;3.58;;;17.60;99.90;;;;;;5033859;28;20127;-90
2023/09/20 00:06:27;;;;;;;12.18;3.42;;;17.60;99.90;;;;;;5034095;28;20044;-90
2023/09/20 00:08:52;;;;;;;7.75;2.28;;;17.60;99.90;;;;;;5017469;28;20040;-90
2023/09/20 00:11:18;;;;;;;10.30;3.67;;;17.60;99.90;;;;;;5034394;28;20498;-91
2023/09/20 00:13:45;;;;;;;7.80;2.20;;;17.60;99.90;;;;;;5020653;28;20034;-91
2023/09/20 00:16:11;;;;;;;10.07;3.60;;;17.60;99.90;;;;;;4997890;28;20045;-91
2023/09/20 00:18:37;;;;;;;13.45;3.40;;;17.60;99.90;;;;;;5013753;28;20067;-91
2023/09/20 00:21:04;;;;;;;10.43;3.50;;;17.60;99.90;;;;;;4996986;28;20076;-91
2023/09/20 00:23:30;;;;;;;9.82;3.40;;;17.60;99.90;;;;;;5016875;28;20100;-90
2023/09/20 00:25:57;;;;;;;11.52;3.60;;;17.60;99.90;;;;;;5017829;28;20419;-91
2023/09/20 00:28:22;;;;;;;9.93;2.50;;;17.60;99.90;;;;;;5033923;28;20408;-91
2023/09/20 00:30:48;;;;;;;11.30;3.50;;;17.60;99.90;;;;;;5017632;28;20496;-90
2023/09/20 00:33:14;;;;;;;9.65;3.30;;;17.60;99.90;;;;;;5034319;28;20037;-90
2023/09/20 00:35:40;;;;;;;13.05;3.70;;;17.60;99.90;;;;;;5032943;28;20558;-91
2023/09/20 00:38:06;;;;;;;7.00;2.13;;;17.70;99.90;;;;;;5033142;28;20041;-90
2023/09/20 00:40:33;;;;;;;6.88;1.77;;;17.60;99.90;;;;;;5033389;28;20065;-90
2023/09/20 00:42:58;;;;;;;9.18;3.05;;;17.60;99.90;;;;;;5033706;28;20177;-90
2023/09/20 00:45:24;;;;;;;8.40;2.47;;;17.60;99.90;;;;;;5017178;28;20488;-90
2023/09/20 00:47:56;;;;;;;8.88;2.65;;;17.60;99.90;;;;;;5016499;28;20060;-90
2023/09/20 00:50:23;;;;;;;12.15;3.38;;;17.60;99.90;;;;;;5016648;28;20037;-90
2023/09/20 00:52:52;;;;;;;11.48;3.67;;;17.60;99.90;;;;;;5029370;28;20077;-91
2023/09/20 00:55:23;;;;;;;7.93;1.90;;;17.70;99.90;;;;;;5031319;28;20102;-90
2023/09/20 00:57:53;;;;;;;11.75;3.55;;;17.60;99.90;;;;;;5033045;28;20048;-90
2023/09/20 01:00:29;;;;;;;8.82;2.80;;;17.60;99.90;;;;;;5017041;28;20037;-90
2023/09/20 01:02:57;;;;;;;10.45;3.25;;;17.60;99.90;;;;;;5016973;28;20128;-91
2023/09/20 01:05:25;;;;;;;9.25;3.35;;;17.70;99.90;;;;;;5033534;28;20032;-91
2023/09/20 01:07:55;;;;;;;11.98;3.35;;;17.70;99.90;;;;;;5032167;28;20045;-90
2023/09/20 01:10:24;;;;;;;11.63;3.60;;;17.70;99.90;;;;;;5031212;28;20607;-90
2023/09/20 01:13:02;;;;;;;10.43;3.42;;;17.70;99.90;;;;;;5020201;28;20033;-91
2023/09/20 01:15:28;;;;;;;6.60;1.60;;;17.80;99.90;;;;;;5020238;28;20568;-90
2023/09/20 01:17:56;;;;;;;11.65;3.38;;;17.70;99.90;;;;;;5037269;28;20040;-91
2023/09/20 01:20:24;;;;;;;11.05;3.45;;;17.70;99.90;;;;;;5020396;28;20040;-91
2023/09/20 01:22:51;;;;;;;10.20;3.63;;;17.80;99.90;;;;;;5037197;28;20045;-90
2023/09/20 01:25:22;;;;;;;11.95;3.67;;;17.70;99.90;;;;;;5036979;28;20072;-90
2023/09/20 01:27:50;;;;;;;11.23;3.65;;;17.80;99.90;;;;;;5020356;28;20037;-91
2023/09/20 01:30:16;;;;;;;10.07;3.13;;;17.70;99.90;;;;;;5020652;28;20425;-91
2023/09/20 01:32:42;;;;;;;12.00;2.97;;;17.70;99.90;;;;;;5020653;28;20491;-91
2023/09/20 01:35:09;;;;;;;10.73;3.40;;;17.70;99.90;;;;;;5020537;28;20508;-91
2023/09/20 01:37:36;;;;;;;11.50;3.78;;;17.80;99.90;;;;;;5020402;28;20067;-91
2023/09/20 01:40:05;;;;;;;7.22;1.83;;;17.80;99.90;;;;;;5036059;28;20099;-91
2023/09/20 01:42:30;;;;;;;11.10;3.50;;;17.70;99.90;;;;;;5036117;28;20559;-90
2023/09/20 01:44:56;;;;;;;13.95;4.00;;;17.70;99.90;;;;;;5036359;28;20037;-90
2023/09/20 01:47:21;;;;;;;8.40;1.98;;;17.80;99.90;;;;;;5044564;28;20037;-91
2023/09/20 01:49:49;;;;;;;16.40;2.65;;;17.80;99.90;;;;;;5034289;28;20048;-91
2023/09/20 01:52:14;;;;;;;12.73;3.70;;;17.70;99.90;;;;;;5021261;28;20033;-91
2023/09/20 01:54:42;;;;;;;9.95;2.78;;;17.80;99.90;;;;;;5038132;28;20041;-90
2023/09/20 01:57:07;;;;;;;10.27;2.90;;;17.80;99.90;;;;;;5036738;28;20041;-89
2023/09/20 01:59:33;;;;;;;11.32;3.50;;;17.80;99.90;;;;;;5037181;28;20408;-90
2023/09/20 02:01:59;;;;;;;11.25;3.47;;;17.80;99.90;;;;;;5017252;28;20041;-91
2023/09/20 02:04:24;;;;;;;10.73;2.20;;;17.80;99.90;;;;;;5035771;28;20045;-90
2023/09/20 02:06:50;;;;;;;11.27;3.30;;;17.80;99.90;;;;;;5033347;28;20499;-90
2023/09/20 02:09:18;;;;;;;6.25;1.85;;;17.80;99.90;;;;;;5033778;28;20041;-90
2023/09/20 02:11:44;;;;;;;11.43;3.60;;;17.80;99.90;;;;;;5032456;28;20045;-90
2023/09/20 02:14:11;;;;;;;8.73;3.00;;;17.80;99.90;;;;;;5032324;28;20043;-90
2023/09/20 02:16:37;;;;;;;9.82;3.00;;;17.80;99.90;;;;;;5035864;28;20041;-90
2023/09/20 02:19:03;;;;;;;10.35;3.25;;;17.80;99.90;;;;;;5019316;28;20102;-90
2023/09/20 02:21:31;;;;;;;8.30;2.10;;;17.80;99.90;;;;;;5035617;28;20173;-90
2023/09/20 02:23:58;;;;;;;11.25;3.40;;;17.80;99.90;;;;;;5035902;28;20048;-90
2023/09/20 02:26:24;;;;;;;13.10;3.53;;;17.80;99.90;;;;;;5019576;28;20029;-90
2023/09/20 02:28:51;;;;;;;13.10;3.80;;;17.80;99.90;;;;;;5035073;28;20123;-90
2023/09/20 02:31:17;;;;;;;10.13;3.55;;;17.90;99.90;;;;;;5035622;28;20048;-91
2023/09/20 02:33:43;;;;;;;11.30;3.47;;;17.80;99.90;;;;;;5035906;28;20059;-90
2023/09/20 02:36:10;;;;;;;11.15;3.42;;;17.80;99.90;;;;;;5035875;28;20112;-90
2023/09/20 02:38:37;;;;;;;10.95;3.17;;;17.90;99.90;;;;;;5035666;28;20049;-90
2023/09/20 02:41:03;;;;;;;12.13;3.28;;;17.90;99.90;;;;;;5035396;28;20045;-91
2023/09/20 02:43:29;;;;;;;6.35;2.05;;;17.90;99.90;;;;;;5019056;28;20049;-90
2023/09/20 02:45:59;;;;;;;6.60;1.95;;;17.80;99.90;;;;;;5018464;28;20040;-89
2023/09/20 02:48:26;;;;;;;11.43;3.42;;;17.80;99.90;;;;;;5034816;28;20037;-91
2023/09/20 02:50:52;;;;;;;10.60;3.55;;;17.80;99.90;;;;;;5035030;28;20411;-91
2023/09/20 02:53:18;;;;;;;10.48;3.45;;;17.80;99.90;;;;;;5018535;28;20041;-91
2023/09/20 02:55:45;;;;;;;11.57;4.22;;;17.90;99.90;;;;;;5035375;28;20147;-90
2023/09/20 02:58:12;;;;;;;11.30;3.30;;;17.80;99.90;;;;;;5035012;28;20052;-91
2023/09/20 03:00:40;;;;;;;11.30;3.60;;;17.80;99.90;;;;;;5034458;28;20099;-90
2023/09/20 03:03:09;;;;;;;9.77;3.65;;;17.80;99.90;;;;;;5034990;28;20092;-90
2023/09/20 03:05:35;;;;;;;9.52;3.22;;;17.80;99.90;;;;;;5026968;28;20120;-90
2023/09/20 03:08:04;;;;;;;11.60;3.45;;;17.80;99.90;;;;;;5018258;28;20472;-91
2023/09/20 03:10:31;;;;;;;6.82;2.25;;;17.80;99.90;;;;;;5018212;28;20083;-90
2023/09/20 03:13:00;;;;;;;12.55;3.70;;;17.70;99.90;;;;;;5034589;28;20049;-90
2023/09/20 03:15:27;;;;;;;13.18;3.90;;;17.70;99.90;;;;;;5018608;28;20048;-90
2023/09/20 03:18:03;;;;;;;10.82;3.90;;;17.70;99.90;;;;;;5034654;28;20119;-90
2023/09/20 03:20:32;;;;;;;11.15;3.30;;;17.70;99.90;;;;;;5017730;28;20420;-89
2023/09/20 03:22:59;;;;;;;11.25;2.28;;;17.70;99.90;;;;;;5034643;28;20509;-90
2023/09/20 03:25:28;;;;;;;13.07;3.65;;;17.70;99.90;;;;;;5018045;28;20079;-90
2023/09/20 03:27:55;;;;;;;11.77;3.60;;;17.70;99.90;;;;;;5034643;28;20101;-92
2023/09/20 03:30:21;;;;;;;11.25;3.38;;;17.60;99.90;;;;;;5017781;28;20047;-90
2023/09/20 03:32:50;;;;;;;8.98;3.15;;;17.70;99.90;;;;;;5034434;28;20044;-91
2023/09/20 03:35:19;;;;;;;11.35;3.72;;;17.60;99.90;;;;;;5033657;28;20049;-91
2023/09/20 03:37:46;;;;;;;13.27;3.60;;;17.60;99.90;;;;;;5030787;28;20045;-90
2023/09/20 03:40:17;;;;;;;12.63;3.60;;;17.60;99.90;;;;;;5034299;28;20041;-90
2023/09/20 03:42:48;;;;;;;9.93;3.38;;;17.60;99.90;;;;;;5034703;28;20048;-90
2023/09/20 03:45:15;;;;;;;11.40;3.33;;;17.60;99.90;;;;;;5017928;28;20033;-90
2023/09/20 03:47:45;;;;;;;8.95;3.20;;;17.50;99.90;;;;;;5034280;28;20040;-91
2023/09/20 03:50:12;;;;;;;11.00;3.20;;;17.50;99.90;;;;;;5017111;28;20052;-90
2023/09/20 03:52:38;;;;;;;10.27;3.17;;;17.40;99.90;;;;;;5017422;28;20519;-91
2023/09/20 03:55:05;;;;;;;11.00;3.53;;;17.40;99.90;;;;;;5050743;28;20115;-91
2023/09/20 03:57:31;;;;;;;9.98;3.17;;;17.40;99.90;;;;;;5034073;28;20049;-90
2023/09/20 03:59:59;;;;;;;9.55;3.47;;;17.30;99.90;;;;;;5034168;28;20101;-91
2023/09/20 04:02:28;;;;;;;6.97;2.08;;;17.30;99.90;;;;;;5034761;28;20393;-91
2023/09/20 04:04:55;;;;;;;10.82;3.83;;;17.10;99.90;;;;;;5034178;28;20041;-90
2023/09/20 04:07:26;;;;;;;6.57;2.22;;;17.10;99.90;;;;;;5033538;28;20041;-91
2023/09/20 04:09:52;;;;;;;10.77;3.63;;;17.10;99.90;;;;;;5017110;28;20036;-91
2023/09/20 04:12:18;;;;;;;10.52;3.33;;;17.00;99.90;;;;;;5033265;28;20063;-90
2023/09/20 04:14:44;;;;;;;13.38;3.85;;;17.00;99.90;;;;;;5017602;28;20072;-91
2023/09/20 04:17:09;;;;;;;7.10;2.38;;;17.00;99.90;;;;;;5033746;28;20128;-89
2023/09/20 04:19:39;;;;;;;13.30;3.83;;;16.90;99.90;;;;;;5017225;28;20140;-89
2023/09/20 04:22:10;;;;;;;8.68;2.15;;;16.90;99.90;;;;;;5016932;28;20136;-90
2023/09/20 04:24:36;;;;;;;11.75;3.60;;;16.80;99.90;;;;;;5033247;28;20037;-90
2023/09/20 04:27:02;;;;;;;9.90;2.45;;;16.80;99.90;;;;;;5034404;28;20125;-90
2023/09/20 04:29:31;;;;;;;10.50;3.63;;;16.80;99.90;;;;;;5033508;28;20047;-91
2023/09/20 04:31:58;;;;;;;10.60;3.17;;;16.70;99.90;;;;;;5034099;28;20052;-90
2023/09/20 04:34:24;;;;;;;11.65;2.92;;;16.80;99.90;;;;;;5033995;28;20057;-91
2023/09/20 04:36:52;;;;;;;11.40;3.40;;;16.70;99.90;;;;;;5017419;28;20049;-90
2023/09/20 04:39:20;;;;;;;6.80;2.03;;;16.70;99.90;;;;;;5033443;28;20041;-90
2023/09/20 04:41:46;;;;;;;12.68;4.13;;;16.60;99.90;;;;;;5017125;28;20100;-90
2023/09/20 04:44:13;;;;;;;8.55;3.65;;;16.60;99.90;;;;;;5033122;28;20037;-90
2023/09/20 04:46:39;;;;;;;11.45;3.78;;;16.60;99.90;;;;;;5036917;28;20115;-90
2023/09/20 04:49:10;;;;;;;9.93;2.55;;;16.60;99.90;;;;;;5037523;28;20796;-91
2023/09/20 04:51:36;;;;;;;8.27;2.35;;;16.60;99.90;;;;;;5034761;28;20479;-91
2023/09/20 04:54:02;;;;;;;9.80;3.67;;;16.50;99.90;;;;;;5032678;28;20560;-91
2023/09/20 04:56:28;;;;;;;7.35;2.25;;;16.50;99.90;;;;;;5021305;28;20412;-91
2023/09/20 04:58:57;;;;;;;7.07;2.42;;;16.50;99.90;;;;;;5036308;28;20515;-91
2023/09/20 05:01:23;;;;;;;14.00;3.80;;;16.40;99.90;;;;;;5036670;28;20512;-91
2023/09/20 05:03:50;;;;;;;8.55;2.15;;;16.40;99.90;;;;;;5020718;28;20111;-90
2023/09/20 05:06:17;;;;;;;7.10;1.92;;;16.40;99.90;;;;;;5037362;28;20047;-90
2023/09/20 05:08:43;;;;;;;9.63;3.42;;;16.40;99.90;;;;;;5020849;28;20094;-90
2023/09/20 05:11:10;;;;;;;10.90;3.53;;;16.40;99.90;;;;;;5038074;28;20041;-91
2023/09/20 05:13:37;;;;;;;9.32;2.38;;;16.40;99.90;;;;;;5037091;28;20056;-92
2023/09/20 05:16:05;;;;;;;11.60;3.30;;;16.40;99.90;;;;;;5037617;28;20037;-90
2023/09/20 05:18:31;;;;;;;10.68;3.38;;;16.40;99.90;;;;;;5036658;28;20032;-91
2023/09/20 05:20:58;;;;;;;9.90;3.20;;;16.40;99.90;;;;;;5017070;28;20103;-89
2023/09/20 05:23:24;;;;;;;5.97;1.65;;;16.40;99.90;;;;;;5019413;28;20045;-91
2023/09/20 05:25:50;;;;;;;9.65;3.10;;;16.40;99.90;;;;;;5034071;28;20048;-91
2023/09/20 05:28:16;;;;;;;13.00;3.83;;;16.40;99.90;;;;;;5034319;28;20045;-91
2023/09/20 05:30:44;;;;;;;9.18;2.85;;;16.40;99.90;;;;;;5020778;28;20037;-92
2023/09/20 05:33:13;;;;;;;10.02;3.30;;;16.50;99.90;;;;;;5037384;28;20454;-91
2023/09/20 05:35:39;;;;;;;9.05;3.15;;;16.50;99.90;;;;;;5020852;28;20399;-90
2023/09/20 05:38:06;;;;;;;10.43;3.35;;;16.50;99.90;;;;;;5036962;28;20071;-90
2023/09/20 05:40:33;;;;;;;7.82;2.15;;;16.50;99.90;;;;;;5036889;28;20044;-90
2023/09/20 05:42:58;;;;;;;4.78;1.42;;;16.50;99.90;;;;;;5020736;28;20496;-91
2023/09/20 05:45:26;;;;;;;9.77;2.00;;;16.40;99.90;;;;;;5055054;28;20041;-90
2023/09/20 05:47:52;;;;;;;12.05;3.08;;;16.40;99.90;;;;;;5036482;28;20045;-91
2023/09/20 05:50:17;;;;;;;9.73;3.20;;;16.50;99.90;;;;;;5036769;28;20044;-91
2023/09/20 05:52:43;;;;;;;10.35;3.17;;;16.50;99.90;;;;;;5037012;28;20036;-90
2023/09/20 05:55:14;;;;;;;6.93;1.92;;;16.60;99.90;;;;;;5036886;28;20458;-91
2023/09/20 05:57:43;;;;;;;9.50;3.17;;;16.50;99.90;;;;;;5019096;28;20044;-91
2023/09/20 06:00:18;;;;;;;4.22;1.85;;;16.50;99.90;;;;;;5036277;28;20037;-91
2023/09/20 06:02:47;;;;;;;9.25;3.40;;;16.50;99.90;;;;;;5029680;28;20040;-90
2023/09/20 06:05:14;;;;;;;8.63;2.35;;;16.50;99.90;;;;;;5036512;28;20040;-91
2023/09/20 06:07:40;;;;;;;11.38;3.90;;;16.50;99.90;;;;;;5036599;28;20064;-90
2023/09/20 06:10:09;;;;;;;4.75;1.48;;;16.60;99.90;;;;;;5036338;28;20458;-91
2023/09/20 06:12:35;;;;;;;10.18;3.72;;;16.60;99.90;;;;;;5033187;28;20497;-91
2023/09/20 06:15:02;;;;;;;5.13;1.80;;;16.60;99.90;;;;;;5031669;28;20032;-91
2023/09/20 06:17:29;;;;;;;10.85;3.75;;;16.60;99.90;;;;;;5044404;28;20033;-90
2023/09/20 06:19:57;;;;;;;9.48;3.53;;;16.70;99.90;;;;;;5036163;28;20037;-90
2023/09/20 06:22:23;;;;;;;12.43;3.92;;;16.70;99.90;;;;;;5033799;28;20039;-90
2023/09/20 06:24:49;;;;;;;11.13;3.63;;;16.80;99.90;;;;;;5028785;28;20327;-90
2023/09/20 06:27:15;;;;;;;10.57;3.10;;;16.80;99.90;;;;;;5032927;28;20646;-90
2023/09/20 06:29:40;;;;;;;7.50;1.67;;;16.80;99.90;;;;;;5018324;28;20036;-91
2023/09/20 06:32:06;;;;;;;11.90;3.95;;;16.80;99.90;;;;;;5035294;28;20083;-90
2023/09/20 06:34:32;;;;;;;4.00;1.33;;;16.80;99.90;;;;;;5034008;28;20049;-90
2023/09/20 06:36:58;;;;;;;9.85;3.85;;;16.80;99.90;;;;;;5031711;28;20393;-90
2023/09/20 06:39:25;;;;;;;5.45;1.92;;;16.90;99.90;;;;;;5018580;28;20052;-90
2023/09/20 06:41:51;;;;;;;13.70;4.07;;;16.90;99.90;;;;;;5035314;28;20056;-90
2023/09/20 06:44:17;;;;;;;8.40;2.30;;;17.00;99.90;;;;;;5033599;28;20041;-90
2023/09/20 06:46:43;;;;;;;10.70;3.85;;;17.00;99.90;;;;;;5030909;28;20420;-90
2023/09/20 06:49:09;;;;;;;7.13;2.08;;;17.00;99.90;;;;;;5036302;28;20036;-91
2023/09/20 06:51:35;;;;;;;9.77;2.58;;;17.00;99.90;;;;;;5018908;28;20041;-90
2023/09/20 06:54:00;;;;;;;10.95;3.47;;;17.00;99.90;;;;;;5035331;28;20393;-90
2023/09/20 06:56:26;;;;;;;9.95;3.47;;;17.10;99.90;;;;;;5027174;28;20126;-92
2023/09/20 06:58:55;;;;;;;11.43;3.83;;;17.20;99.90;;;;;;5034526;28;20091;-92
2023/09/20 07:01:24;;;;;;;4.15;1.65;;;17.30;99.90;;;;;;5018395;28;20086;-92
2023/09/20 07:03:50;;;;;;;11.70;4.10;;;17.30;99.90;;;;;;5035214;28;20051;-91
2023/09/20 07:06:15;;;;;;;11.93;4.43;;;17.30;99.90;;;;;;5034464;28;20116;-91
2023/09/20 07:08:42;;;;;;;11.50;4.20;;;17.30;99.90;;;;;;5018139;28;20063;-92
2023/09/20 07:11:08;;;;;;;11.60;3.80;;;17.40;99.90;;;;;;5034313;28;20045;-91
2023/09/20 07:13:33;;;;;;;8.75;3.72;;;17.40;99.90;;;;;;5033953;28;20120;-91
2023/09/20 07:16:04;;;;;;;6.43;2.03;;;17.50;99.90;;;;;;5014783;28;20072;-90
2023/09/20 07:18:30;;;;;;;11.60;3.75;;;17.50;99.90;;;;;;5020042;28;20137;-92
2023/09/20 07:20:56;;;;;;;12.15;4.15;;;17.50;99.90;;;;;;5042935;28;20123;-89
2023/09/20 07:23:21;;;;;;;11.70;3.90;;;17.50;99.90;;;;;;5029919;28;20098;-90
2023/09/20 07:25:50;;;;;;;8.13;2.45;;;17.50;99.90;;;;;;5033978;28;20491;-91
2023/09/20 07:28:19;;;;;;;12.10;3.85;;;17.50;99.90;;;;;;5032235;28;20051;-89
2023/09/20 07:30:45;;;;;;;11.75;4.00;;;17.50;99.90;;;;;;5029193;28;20151;-90
2023/09/20 07:33:12;;;;;;;9.93;3.78;;;17.50;99.90;;;;;;5016939;28;20629;-91
2023/09/20 07:35:48;;;;;;;12.65;4.25;;;17.60;99.90;;;;;;5016599;28;20033;-90
2023/09/20 07:38:32;;;;;;;6.05;1.92;;;17.70;99.90;;;;;;5016240;28;20693;-87
2023/09/20 07:41:08;;;;;;;12.77;3.50;;;17.70;99.90;;;;;;5032610;28;20515;-88
2023/09/20 07:43:37;;;;;;;13.55;4.50;;;17.80;99.90;;;;;;5016500;28;20108;-88
2023/09/20 07:46:06;;;;;;;9.63;4.00;;;17.90;99.90;;;;;;5016056;28;20041;-87
2023/09/20 07:48:33;;;;;;;7.35;2.00;;;18.00;99.90;;;;;;5048703;28;20088;-87
2023/09/20 07:50:59;;;;;;;11.52;3.50;;;18.00;99.90;;;;;;5033365;28;20037;-88
2023/09/20 07:53:26;;;;;;;11.00;3.80;;;18.10;99.90;;;;;;5031601;28;20041;-88
2023/09/20 07:56:06;;;;;;;11.63;3.83;;;18.30;99.90;;;;;;5016937;28;20492;-87
2023/09/20 07:58:36;;;;;;;9.18;3.28;;;18.40;99.90;;;;;;5015277;28;20484;-87
2023/09/20 08:01:12;;;;;;;11.90;3.50;;;18.50;99.90;;;;;;5032826;28;20037;-88
2023/09/20 08:03:53;;;;;;;9.35;3.60;;;18.50;99.90;;;;;;5028761;28;20053;-87
2023/09/20 08:06:23;;;;;;;11.30;3.63;;;18.60;99.90;;;;;;5032015;28;20083;-87
2023/09/20 08:08:49;;;;;;;9.25;3.28;;;18.70;99.90;;;;;;5032057;28;20072;-87
2023/09/20 08:11:14;;;;;;;6.28;2.42;;;18.70;99.90;;;;;;5033367;28;20477;-87
2023/09/20 08:13:40;;;;;;;11.20;3.30;;;18.70;99.90;;;;;;5016647;28;20451;-87
2023/09/20 08:16:09;;;;;;;10.35;3.63;;;18.70;99.90;;;;;;5015991;28;20052;-87
2023/09/20 08:21:21;;;;;;;10.82;3.25;;;18.80;99.90;;;;;;5039368;28;20042;-88
2023/09/20 08:59:54;;;;;;;10.73;3.10;;;18.80;99.90;;;;;;5031275;28;20048;-87
2023/09/20 09:02:21;;;;;;;10.60;3.22;;;18.80;99.90;;;;;;5030504;28;20555;-87
2023/09/20 09:04:53;;;;;;;8.90;2.88;;;18.70;99.90;;;;;;5028600;28;20034;-86
2023/09/20 09:07:25;;;;;;;4.75;2.03;;;18.80;99.90;;;;;;5009328;28;20029;-87
2023/09/20 09:09:51;;;;;;;;;;;18.80;99.90;;;;;;5012503;28;20048;-87
2023/09/20 09:12:18;;;;;;;7.57;2.42;;;18.80;99.90;;;;;;5015675;28;19917;-88
2023/09/20 09:14:46;;;;;;;8.23;2.80;;;18.80;99.90;;;;;;5014920;28;20408;-88
2023/09/20 09:17:13;;;;;;;10.55;2.97;;;18.90;99.90;;;;;;5015143;28;20586;-87
2023/09/20 09:19:39;;;;;;;9.40;2.78;;;18.90;99.90;;;;;;5010954;28;20738;-87
2023/09/20 09:22:06;;;;;;;8.27;2.50;;;18.90;99.90;;;;;;5031308;28;20147;-88
2023/09/20 09:24:45;;;;;;;7.93;2.53;;;18.90;99.90;;;;;;5015990;28;20502;-88
2023/09/20 09:27:11;;;;;;;7.20;2.28;;;18.90;99.90;;;;;;5031159;28;20040;-87
2023/09/20 09:29:38;;;;;;;7.47;2.28;;;18.90;99.90;;;;;;5031835;28;20033;-88
2023/09/20 09:32:04;;;;;;;8.20;2.67;;;18.90;99.90;;;;;;5013444;28;20041;-88
2023/09/20 09:34:30;;;;;;;7.35;2.78;;;18.80;99.90;;;;;;5018467;28;20512;-87
2023/09/20 09:36:56;;;;;;;7.15;1.88;;;18.90;99.90;;;;;;5031201;28;20048;-88
2023/09/20 09:39:24;;;;;;;8.20;2.70;;;18.80;99.90;;;;;;5040648;28;20043;-88
2023/09/20 09:41:51;;;;;;;8.63;2.85;;;18.80;99.90;;;;;;5023368;28;20411;-88
2023/09/20 09:44:17;;;;;;;7.68;2.47;;;18.80;99.90;;;;;;5018456;28;20037;-87
2023/09/20 09:46:43;;;;;;;7.05;2.25;;;18.90;99.90;;;;;;5040424;28;20040;-88
2023/09/20 09:49:18;;;;;;;5.18;2.05;;;18.90;99.90;;;;;;5029697;28;20080;-88
2023/09/20 09:51:52;;;;;;;7.82;2.75;;;18.80;99.90;;;;;;5022971;28;20029;-88
2023/09/20 09:54:20;;;;;;;9.15;2.67;;;18.80;99.90;;;;;;5036217;28;20043;-88
2023/09/20 09:56:46;;;;;;;8.43;2.83;;;18.80;99.90;;;;;;5019345;28;20063;-88
2023/09/20 09:59:12;;;;;;;8.10;2.58;;;18.80;99.90;;;;;;5031314;28;20033;-87
2023/09/20 10:01:40;;;;;;;7.65;2.60;;;18.70;99.90;;;;;;5013897;28;20459;-88
2023/09/20 10:04:17;;;;;;;7.78;2.25;;;18.70;99.90;;;;;;5036837;28;20044;-88
2023/09/20 10:07:09;;;;;;;8.27;2.25;;;18.70;99.90;;;;;;5035918;28;20075;-88
2023/09/20 10:09:39;;;;;;;6.80;2.35;;;18.70;99.90;;;;;;5037336;28;20041;-88
2023/09/20 10:12:07;;;;;;;8.85;2.67;;;18.80;99.90;;;;;;5039572;28;20546;-87
2023/09/20 10:14:36;;;;;;;8.13;2.80;;;18.80;99.90;;;;;;5037890;28;20041;-87
2023/09/20 10:17:22;;;;;;;8.45;2.25;;;18.90;99.90;;;;;;5029917;28;20066;-88
2023/09/20 10:19:53;;;;;;;7.53;2.53;;;19.00;99.90;;;;;;5053330;28;20399;-87
2023/09/20 10:22:21;;;;;;;8.02;2.70;;;19.00;99.90;;;;;;5013741;28;20038;-87
2023/09/20 10:25:00;;;;;;;8.48;3.17;;;19.00;99.90;;;;;;5033296;28;20044;-87
2023/09/20 10:27:28;;;;;;;8.43;2.80;;;19.10;99.90;;;;;;5034832;28;20127;-87
2023/09/20 10:30:09;;;;;;;7.60;2.40;;;19.10;99.90;;;;;;5030258;28;20037;-88
2023/09/20 10:32:38;;;;;;;8.43;2.88;;;19.20;99.90;;;;;;5012551;28;20043;-88
2023/09/20 10:35:29;;;;;;;8.05;2.70;;;19.30;99.90;;;;;;5018474;28;20035;-88
2023/09/20 10:38:08;;;;;;;8.23;2.85;;;19.30;99.90;;;;;;5028634;28;20103;-87
2023/09/20 10:40:48;;;;;;;6.45;2.45;;;19.40;99.90;;;;;;5017751;28;20045;-88
2023/09/20 10:43:16;;;;;;;7.40;2.75;;;19.40;99.90;;;;;;5031185;28;20041;-88
2023/09/20 10:45:53;;;;;;;8.10;2.83;;;19.40;99.90;;;;;;5034678;28;20381;-88
2023/09/20 10:48:27;;;;;;;9.70;2.95;;;19.40;99.90;;;;;;5034828;28;20040;-88
2023/09/20 10:50:57;;;;;;;4.97;1.70;;;19.40;99.90;;;;;;5041977;28;20427;-88
2023/09/20 10:54:10;;;;;;;8.55;2.53;;;19.40;99.90;;;;;;5048484;28;20055;-90
2023/09/20 10:59:56;;;;;;;7.63;2.45;;;19.60;99.90;;;;;;4965401;28;20039;-91
2023/09/20 11:02:25;;;;;;;7.63;2.30;;;19.60;99.90;;;;;;4952935;28;20059;-90
2023/09/20 11:04:53;;;;;;;7.28;2.50;;;19.70;99.90;;;;;;4969620;28;20078;-90
2023/09/20 11:07:53;;;;;;;8.18;2.92;;;19.70;99.90;;;;;;4960439;28;20054;-91
2023/09/20 11:10:19;;;;;;;10.00;2.65;;;19.80;99.90;;;;;;4918134;29;20537;-91
2023/09/20 11:12:45;;;;;;;8.52;2.95;;;20.00;99.90;;;;;;4932745;29;20099;-92
2023/09/20 11:15:16;;;;;;;9.25;2.85;;;20.10;99.90;;;;;;4916539;29;20541;-91
2023/09/20 11:17:42;;;;;;;6.35;2.45;;;20.20;99.90;;;;;;4917618;29;20115;-91
2023/09/20 11:20:11;;;;;;;7.00;2.50;;;20.30;99.90;;;;;;4915813;29;20082;-91
2023/09/20 11:22:37;;;;;;;7.85;2.95;;;20.40;99.90;;;;;;4916741;29;20039;-91
2023/09/20 11:25:04;;;;;;;8.13;2.55;;;20.40;99.90;;;;;;4899444;29;20514;-90
2023/09/20 11:27:34;;;;;;;7.00;2.67;;;20.30;99.90;;;;;;4916438;29;20059;-91
2023/09/20 11:30:08;;;;;;;7.45;2.42;;;20.40;99.90;;;;;;4931813;29;20052;-92
2023/09/20 11:32:34;;;;;;;8.38;2.95;;;20.50;99.90;;;;;;4932682;29;20165;-91
2023/09/20 11:35:01;;;;;;;8.98;2.70;;;20.40;99.90;;;;;;4931157;29;20043;-91
2023/09/20 11:37:30;;;;;;;7.28;2.75;;;20.40;99.90;;;;;;4929487;28;20089;-91
2023/09/20 11:39:56;;;;;;;8.57;2.88;;;20.30;99.90;;;;;;4960058;28;20113;-90
2023/09/20 11:42:31;;;;;;;8.00;2.83;;;20.30;99.90;;;;;;4955126;28;20043;-91
2023/09/20 11:45:03;;;;;;;7.38;2.65;;;20.30;99.90;;;;;;4938564;28;20505;-91
2023/09/20 11:47:34;;;;;;;7.90;2.75;;;20.30;99.90;;;;;;4986652;28;20045;-92
2023/09/20 11:50:00;;;;;;;7.97;2.92;;;20.30;99.90;;;;;;5017382;28;20119;-92
2023/09/20 11:52:27;;;;;;;8.77;3.15;;;20.40;99.90;;;;;;5018093;28;20041;-91
2023/09/20 11:55:03;;;;;;;8.48;2.90;;;20.50;99.90;;;;;;5033985;28;20037;-91
2023/09/20 11:57:29;;;;;;;8.25;3.03;;;20.70;99.90;;;;;;5033715;28;20041;-92
2023/09/20 11:59:55;;;;;;;8.85;3.15;;;20.80;99.90;;;;;;5033627;28;20599;-91
2023/09/20 12:02:21;;;;;;;8.90;3.42;;;21.00;99.90;;;;;;5017021;28;20119;-91
2023/09/20 12:04:52;;;;;;;10.90;3.50;;;21.30;99.90;;;;;;5017409;28;20041;-92
2023/09/20 12:07:18;;;;;;;8.97;3.33;;;21.30;99.90;;;;;;5017245;28;20037;-90
2023/09/20 12:09:44;;;;;;;6.93;2.95;;;21.30;99.90;;;;;;5013783;28;20109;-91
2023/09/20 12:12:10;;;;;;;9.25;3.30;;;21.30;99.90;;;;;;5017701;28;20044;-90
2023/09/20 12:14:38;;;;;;;8.10;3.35;;;21.30;99.90;;;;;;5034343;28;20045;-91
2023/09/20 12:17:06;;;;;;;7.75;3.20;;;21.30;99.90;;;;;;5032721;28;20043;-91
2023/09/20 12:19:32;;;;;;;11.68;4.13;;;21.30;99.90;;;;;;5016370;28;20102;-92
2023/09/20 12:21:58;;;;;;;12.32;3.30;;;21.30;99.90;;;;;;5033244;28;20496;-91
2023/09/20 12:24:24;;;;;;;8.38;2.95;;;21.40;99.90;;;;;;5017256;28;20033;-92
2023/09/20 12:26:51;;;;;;;9.05;3.00;;;21.50;99.90;;;;;;5033807;28;20159;-92
2023/09/20 12:29:17;;;;;;;7.85;2.80;;;21.60;99.90;;;;;;5016175;28;20044;-91
2023/09/20 12:31:43;;;;;;;10.18;2.90;;;21.70;99.90;;;;;;5032869;28;20208;-92
2023/09/20 12:34:08;;;;;;;8.88;2.90;;;21.70;99.90;;;;;;5032209;28;20044;-91
2023/09/20 12:36:34;;;;;;;8.77;2.97;;;21.70;99.90;;;;;;5032854;28;20049;-92
2023/09/20 12:39:04;;;;;;;7.15;2.95;;;21.70;99.90;;;;;;5032275;28;20459;-91
2023/09/20 12:41:29;;;;;;;7.97;2.67;;;21.80;99.90;;;;;;5016276;28;20044;-92
2023/09/20 12:43:55;;;;;;;7.60;2.80;;;21.90;99.90;;;;;;5016216;28;20102;-91
2023/09/20 12:46:22;;;;;;;8.00;2.45;;;21.90;99.90;;;;;;5016659;28;20044;-91
2023/09/20 12:48:48;;;;;;;7.32;2.70;;;21.90;99.90;;;;;;5016736;28;20037;-91
2023/09/20 12:51:15;;;;;;;8.18;2.80;;;21.90;99.90;;;;;;5013679;28;20048;-91
2023/09/20 12:53:43;;;;;;;7.35;2.35;;;22.00;99.90;;;;;;5016710;28;20037;-91
2023/09/20 12:56:11;;;;;;;8.95;2.72;;;22.10;99.90;;;;;;5033574;28;20060;-92
2023/09/20 12:58:39;;;;;;;7.00;2.40;;;22.10;99.90;;;;;;5016684;28;20056;-92
2023/09/20 13:01:07;;;;;;;7.50;2.65;;;22.30;99.90;;;;;;5030391;28;20037;-92
2023/09/20 13:03:33;;;;;;;6.43;2.50;;;22.40;99.90;;;;;;5021965;28;20033;-92
2023/09/20 13:05:59;;;;;;;7.40;2.60;;;22.60;99.90;;;;;;5016991;28;20068;-92
2023/09/20 13:08:25;;;;;;;6.85;2.53;;;22.60;99.90;;;;;;5020767;28;20525;-92
2023/09/20 13:10:51;;;;;;;6.78;2.53;;;22.50;99.90;;;;;;5033577;28;20072;-92
2023/09/20 13:13:20;;;;;;;6.47;2.20;;;22.50;99.90;;;;;;5026359;28;20512;-91
2023/09/20 13:15:46;;;;;;;7.20;2.25;;;22.40;99.90;;;;;;5020475;28;20120;-92
2023/09/20 13:18:12;;;;;;;8.18;2.50;;;22.40;99.90;;;;;;5053476;28;20040;-92
2023/09/20 13:20:42;;;;;;;7.75;2.53;;;22.60;99.90;;;;;;5036852;28;20033;-91
2023/09/20 13:23:09;;;;;;;7.55;2.30;;;22.80;99.90;;;;;;5020057;28;20107;-92
2023/09/20 13:25:35;;;;;;;8.10;2.28;;;22.80;99.90;;;;;;5020211;28;20079;-91
2023/09/20 13:28:01;;;;;;;6.93;2.20;;;22.60;99.90;;;;;;5033040;28;20029;-92
2023/09/20 13:30:26;;;;;;;6.75;2.40;;;22.50;99.10;;;;;;5019906;28;20094;-92